Monterey Peninsula Airport Monterey US
ICAO: KMRY
IATA: MRY
Category: Medium
Scheduled Services: Yes

Elevation: 257 ft
TransAlt. 18000 ft.

Airport Communications:
NORCAL APP/DEP:127.15
ATIS:119.25
CLNC DEL:135.45
CTAF:118.4
GND:121.9
TWR:118.4
UNICOM:122.95

KMRY Zoom In..

Runways:

(A) RW 10L length 3513 ft width 60 ft
LOC 110.70 / hdg 98

(B) RW 10R length 7616 ft width 150 ft
ILS 110.70 / hdg 98

(C) RW 28L length 7616 ft width 150 ft
LOC 110.70 / hdg 278

(D) RW 28R length 3513 ft width 60 ft
LOC 110.70 / hdg 278

Location; KMRY
Day. 26 / Time. 13.54 Zulu
* Altimeter: 30.11
* Temperature: 12° c. 53.6°f.
* Wind from: 270° Speed 10 kn.
Dewpoint: 11° c.
Visibility: 9 Statute Miles.
Clouds: Broken 800 ft.
Clouds: Overcast 1300 ft.

KMRY 261354Z 27010KT 9SM BKN008 OVC013 12/11 A3011 RMK AO2 SLP208 T01220106


Wind From 270°
Speed 10 kn.

 
 
jpsmedia.com for Web Design SOUNDCLOUD worldairports.se 2018   terms of use